Time;durP1;ratioP1;P1;durP2;ratioP2;P2;SDS_P1;SDS_P2;PMS_P1;PMS_P2;Temp;Humidity;BMP_temperature;BMP_pressure;BME280_temperature;BME280_humidity;BME280_pressure;Samples;Min_cycle;Max_cycle;Signal;HPM_P1;HPM_P2
2022/02/03 00:00:07;;;;;;;10.23;5.55;;;4.40;99.90;;;;;;2086485;28;20179;-71
2022/02/03 00:01:19;;;;;;;7.78;4.90;;;4.30;99.90;;;;;;2094973;28;20178;-73
2022/02/03 00:04:59;;;;;;;8.43;4.95;;;4.10;99.90;;;;;;2097997;28;20636;-71
2022/02/03 00:06:07;;;;;;;9.30;5.82;;;4.00;99.90;;;;;;2085896;28;20191;-71
2022/02/03 00:07:15;;;;;;;8.07;4.80;;;4.10;99.90;;;;;;2090899;28;20167;-71
2022/02/03 00:10:18;;;;;;;7.28;4.57;;;4.10;99.90;;;;;;2097987;28;20160;-72
2022/02/03 00:16:57;;;;;;;5.78;4.03;;;4.40;99.90;;;;;;2098193;28;20663;-71
2022/02/03 00:23:47;;;;;;;49.15;23.85;;;4.00;99.90;;;;;;2092895;28;20191;-71
2022/02/03 00:25:29;;;;;;;30.52;15.77;;;3.80;99.90;;;;;;2092694;28;20564;-71
2022/02/03 00:26:35;;;;;;;31.88;15.80;;;3.70;99.90;;;;;;2072674;28;20189;-71
2022/02/03 00:29:16;;;;;;;66.57;23.35;;;3.60;99.90;;;;;;2089539;28;20183;-71
2022/02/03 00:30:19;;;;;;;34.53;16.67;;;3.60;99.90;;;;;;2089559;28;20176;-71
2022/02/03 00:34:03;;;;;;;27.25;11.90;;;3.50;99.90;;;;;;2098294;28;20781;-71
2022/02/03 00:37:31;;;;;;;21.70;9.85;;;3.50;99.90;;;;;;2090476;28;20218;-71
2022/02/03 00:49:00;;;;;;;12.68;6.93;;;3.80;99.90;;;;;;2098122;28;20171;-71
2022/02/03 00:50:21;;;;;;;17.33;8.77;;;3.80;99.90;;;;;;2098476;28;20175;-71
2022/02/03 00:51:24;;;;;;;23.48;10.43;;;3.80;99.90;;;;;;2097831;28;20181;-71
2022/02/03 00:52:26;;;;;;;19.65;9.98;;;3.90;99.90;;;;;;2089396;28;20200;-71
2022/02/03 00:53:27;;;;;;;35.03;12.52;;;3.80;99.90;;;;;;2081505;28;20192;-71
2022/02/03 00:54:31;;;;;;;22.65;9.55;;;3.90;99.90;;;;;;2089309;28;20183;-71
2022/02/03 00:55:37;;;;;;;19.77;10.23;;;3.80;99.90;;;;;;2089871;28;20661;-71
2022/02/03 00:56:39;;;;;;;26.20;11.45;;;3.90;99.90;;;;;;2097770;28;20172;-71
2022/02/03 00:57:49;;;;;;;18.33;9.57;;;3.90;99.90;;;;;;2089886;28;20183;-71
2022/02/03 00:59:02;;;;;;;41.33;13.10;;;4.00;99.90;;;;;;2090897;28;21062;-71
2022/02/03 01:00:13;;;;;;;21.35;10.07;;;3.90;99.90;;;;;;2091091;28;20186;-71
2022/02/03 01:01:19;;;;;;;20.60;10.13;;;3.90;99.90;;;;;;2097753;28;20758;-71
2022/02/03 01:02:22;;;;;;;22.85;10.25;;;3.90;99.90;;;;;;2097861;28;20171;-71
2022/02/03 01:03:28;;;;;;;21.90;9.70;;;3.90;99.90;;;;;;2089654;28;20212;-71
2022/02/03 01:04:31;;;;;;;15.07;6.90;;;3.80;99.90;;;;;;2081808;28;20180;-71
2022/02/03 01:05:36;;;;;;;10.73;6.07;;;3.80;99.90;;;;;;2073323;28;20199;-71
2022/02/03 01:06:51;;;;;;;15.25;7.50;;;3.80;99.90;;;;;;2074265;28;20181;-71
2022/02/03 01:07:53;;;;;;;19.88;8.57;;;3.90;99.90;;;;;;2091396;28;20172;-71
2022/02/03 01:08:56;;;;;;;13.95;7.40;;;3.80;99.90;;;;;;2097548;28;20170;-71
2022/02/03 01:10:04;;;;;;;14.73;6.68;;;3.80;99.90;;;;;;2089647;28;20190;-71
2022/02/03 01:11:14;;;;;;;10.68;5.25;;;3.80;99.90;;;;;;2090521;28;20167;-71
2022/02/03 01:12:31;;;;;;;11.77;6.10;;;3.80;99.90;;;;;;2091631;28;20203;-71
2022/02/03 01:16:41;;;;;;;15.95;7.75;;;3.70;99.90;;;;;;2069076;28;20197;-71
2022/02/03 01:34:38;;;;;;;11.52;5.53;;;3.50;99.90;;;;;;2089107;28;20167;-72
2022/02/03 01:37:18;;;;;;;23.23;8.13;;;3.50;99.90;;;;;;2089274;28;20195;-72
2022/02/03 01:44:03;;;;;;;14.00;6.07;;;3.60;99.90;;;;;;2086008;28;20700;-71
2022/02/03 01:45:16;;;;;;;13.18;4.90;;;3.60;99.90;;;;;;2084260;28;20171;-72
2022/02/03 01:46:27;;;;;;;32.53;8.68;;;3.60;99.90;;;;;;2091732;28;20259;-72
2022/02/03 01:52:39;;;;;;;24.55;6.97;;;3.60;99.90;;;;;;2089000;28;20187;-72
2022/02/03 01:53:40;;;;;;;35.53;8.10;;;3.60;99.90;;;;;;2086231;28;20215;-72
2022/02/03 01:54:44;;;;;;;11.47;4.53;;;3.50;99.90;;;;;;2088835;28;20206;-72
2022/02/03 01:55:47;;;;;;;29.02;8.63;;;3.50;99.90;;;;;;2088972;28;20190;-72
2022/02/03 01:56:59;;;;;;;16.95;5.75;;;3.50;99.90;;;;;;2089019;28;20249;-72
2022/02/03 01:58:29;;;;;;;22.80;7.78;;;3.40;99.90;;;;;;2088876;28;20207;-71
2022/02/03 01:59:34;;;;;;;21.35;7.53;;;3.50;99.90;;;;;;2084579;28;20233;-72
2022/02/03 02:01:01;;;;;;;18.27;6.20;;;3.40;99.90;;;;;;2081418;28;20188;-72
2022/02/03 02:02:06;;;;;;;24.20;7.93;;;3.40;99.90;;;;;;2092017;28;20215;-72
2022/02/03 02:03:09;;;;;;;13.65;5.40;;;3.50;99.90;;;;;;2096494;28;20186;-72
2022/02/03 02:04:33;;;;;;;12.52;5.68;;;3.50;99.90;;;;;;2088766;28;20179;-72
2022/02/03 02:06:28;;;;;;;11.55;5.13;;;3.50;99.90;;;;;;2088904;28;20187;-72
2022/02/03 02:07:46;;;;;;;10.35;4.78;;;3.50;99.90;;;;;;2063031;28;20241;-72
2022/02/03 02:09:03;;;;;;;19.00;7.28;;;3.50;99.90;;;;;;2063726;28;20197;-72
2022/02/03 02:11:05;;;;;;;13.93;5.18;;;3.60;99.90;;;;;;2082050;28;20233;-72
2022/02/03 02:12:28;;;;;;;12.13;4.13;;;3.60;99.90;;;;;;2088809;28;20203;-72
2022/02/03 02:15:30;;;;;;;16.92;6.13;;;3.50;99.90;;;;;;2088741;28;20180;-72
2022/02/03 02:17:23;;;;;;;18.88;6.30;;;3.50;99.90;;;;;;2094243;28;20190;-72
2022/02/03 02:38:16;;;;;;;11.73;4.55;;;3.60;99.90;;;;;;2096884;28;20182;-72
2022/02/03 02:43:36;;;;;;;13.15;4.85;;;3.50;99.90;;;;;;2069015;28;20228;-72
2022/02/03 02:45:04;;;;;;;20.27;6.15;;;3.60;99.90;;;;;;2063566;28;20188;-72
2022/02/03 02:46:47;;;;;;;14.43;5.13;;;3.50;99.90;;;;;;2086307;28;20225;-72
2022/02/03 02:48:07;;;;;;;7.00;3.67;;;3.50;99.90;;;;;;2096789;28;20609;-72
2022/02/03 02:49:19;;;;;;;15.60;5.60;;;3.60;99.90;;;;;;2091139;28;20158;-72
2022/02/03 02:50:39;;;;;;;7.57;3.65;;;3.50;99.90;;;;;;2090316;28;20255;-72
2022/02/03 02:51:58;;;;;;;13.80;4.75;;;3.50;99.90;;;;;;2091025;28;20664;-72
2022/02/03 02:53:25;;;;;;;10.15;4.63;;;3.60;99.90;;;;;;2085063;28;20269;-72
2022/02/03 02:56:23;;;;;;;14.50;5.30;;;3.70;99.90;;;;;;2063592;28;20200;-72
2022/02/03 03:32:12;;;;;;;9.32;3.55;;;3.30;99.90;;;;;;2096614;28;20675;-72
2022/02/03 03:35:45;;;;;;;11.52;5.07;;;3.30;99.90;;;;;;2098593;28;20168;-72
2022/02/03 03:36:53;;;;;;;103.30;12.40;;;3.40;99.90;;;;;;2096562;28;20340;-72
2022/02/03 03:37:59;;;;;;;97.18;13.82;;;3.40;99.90;;;;;;2096512;28;20189;-71
2022/02/03 03:39:02;;;;;;;93.20;12.35;;;3.40;99.90;;;;;;2096419;28;20175;-71
2022/02/03 03:40:06;;;;;;;112.10;14.20;;;3.30;99.90;;;;;;2096375;28;20185;-72
2022/02/03 03:41:07;;;;;;;34.08;7.75;;;3.30;99.90;;;;;;2096502;28;20183;-72
2022/02/03 03:42:14;;;;;;;48.38;10.93;;;3.30;99.90;;;;;;2096276;28;20229;-72
2022/02/03 03:43:27;;;;;;;29.27;7.53;;;3.30;99.90;;;;;;2089021;28;20193;-72
2022/02/03 03:44:31;;;;;;;15.05;5.45;;;3.30;99.90;;;;;;2096567;28;20712;-72
2022/02/03 03:45:34;;;;;;;18.65;6.97;;;3.30;99.90;;;;;;2096310;28;20282;-72
2022/02/03 03:46:38;;;;;;;13.00;5.45;;;3.40;99.90;;;;;;2088482;28;20255;-72
2022/02/03 03:47:41;;;;;;;21.17;6.45;;;3.50;99.90;;;;;;2096876;28;20205;-72
2022/02/03 03:49:30;;;;;;;16.98;6.32;;;3.50;99.90;;;;;;2096404;28;20190;-72
2022/02/03 03:50:37;;;;;;;13.57;5.97;;;3.50;99.90;;;;;;2094604;28;20736;-72
2022/02/03 03:51:57;;;;;;;10.07;5.15;;;3.50;99.90;;;;;;2096293;28;20204;-72
2022/02/03 03:53:06;;;;;;;35.03;8.75;;;3.50;99.90;;;;;;2099008;28;20175;-72
2022/02/03 03:54:12;;;;;;;23.52;7.72;;;3.40;99.90;;;;;;2096339;28;20647;-72
2022/02/03 03:55:33;;;;;;;21.67;6.85;;;3.40;99.90;;;;;;2089392;28;20207;-72
2022/02/03 03:57:14;;;;;;;11.63;5.25;;;3.40;99.90;;;;;;2091143;28;20163;-72
2022/02/03 04:00:30;;;;;;;12.38;5.07;;;3.40;99.90;;;;;;2096964;28;20191;-72
2022/02/03 04:32:50;;;;;;;18.92;7.05;;;3.20;99.90;;;;;;2094370;28;20730;-72
2022/02/03 04:34:34;;;;;;;19.38;6.43;;;3.20;99.90;;;;;;2089689;28;20170;-72
2022/02/03 04:36:53;;;;;;;9.27;4.72;;;3.20;99.90;;;;;;2089405;28;20198;-72
2022/02/03 04:38:10;;;;;;;12.90;5.53;;;3.20;99.90;;;;;;2089418;28;20199;-72
2022/02/03 04:52:27;;;;;;;7.07;4.05;;;3.30;99.90;;;;;;2089170;28;20176;-72
2022/02/03 04:55:26;;;;;;;8.90;3.90;;;3.30;99.90;;;;;;2090044;28;20697;-72
2022/02/03 04:59:11;;;;;;;7.57;4.40;;;3.40;99.90;;;;;;2090232;28;20204;-72
2022/02/03 05:01:56;;;;;;;15.02;6.43;;;3.40;99.90;;;;;;2089364;28;20201;-72
2022/02/03 05:05:40;;;;;;;11.20;5.10;;;3.30;99.90;;;;;;2090021;28;20240;-72
2022/02/03 05:09:24;;;;;;;12.05;4.65;;;3.30;99.90;;;;;;2050685;28;20712;-72
2022/02/03 05:11:17;;;;;;;15.18;6.25;;;3.30;99.90;;;;;;2093894;28;20759;-72
2022/02/03 05:13:03;;;;;;;11.45;6.13;;;3.30;99.90;;;;;;2098200;28;20182;-72
2022/02/03 05:14:58;;;;;;;15.93;7.50;;;3.40;99.90;;;;;;2098262;28;20159;-72
2022/02/03 05:18:32;;;;;;;21.48;9.75;;;3.30;99.90;;;;;;2104562;28;20185;-72
2022/02/03 05:25:22;;;;;;;21.88;8.48;;;3.30;99.90;;;;;;2106051;28;20170;-72
2022/02/03 05:42:27;;;;;;;25.60;8.30;;;3.30;99.90;;;;;;2102485;28;20206;-72
2022/02/03 05:44:11;;;;;;;15.63;5.40;;;3.40;99.90;;;;;;2099769;28;20174;-72
2022/02/03 05:48:39;;;;;;;8.38;4.90;;;3.30;99.90;;;;;;2095646;28;20197;-72
2022/02/03 06:05:02;;;;;;;23.30;8.27;;;3.30;99.90;;;;;;2102237;28;20616;-72
2022/02/03 06:07:45;;;;;;;8.65;4.40;;;3.30;99.90;;;;;;2105599;28;20583;-72
2022/02/03 06:08:58;;;;;;;25.90;9.68;;;3.20;99.90;;;;;;2100210;28;20171;-72
2022/02/03 06:14:07;;;;;;;14.00;6.65;;;2.70;99.90;;;;;;2097158;28;20281;-72
2022/02/03 06:15:21;;;;;;;23.30;8.50;;;2.70;99.90;;;;;;2097171;28;20177;-72
2022/02/03 06:17:49;;;;;;;14.30;6.75;;;2.70;99.90;;;;;;2097167;28;20566;-72
2022/02/03 06:21:35;;;;;;;6.13;3.65;;;2.80;99.90;;;;;;2092219;28;20173;-72
2022/02/03 06:22:44;;;;;;;6.75;3.65;;;2.70;99.90;;;;;;2088835;28;20189;-72
2022/02/03 06:27:24;;;;;;;3.88;2.72;;;2.70;99.90;;;;;;2088755;28;20187;-72
2022/02/03 06:27:44;;;;;;;18.13;7.03;;;2.60;99.90;;;;;;2090487;28;20171;-72
2022/02/03 06:28:48;;;;;;;13.40;6.72;;;2.50;99.90;;;;;;2089407;28;20247;-72
2022/02/03 06:29:52;;;;;;;21.73;7.40;;;2.50;99.90;;;;;;2089259;28;20277;-72
2022/02/03 06:30:53;;;;;;;24.15;7.25;;;2.50;99.90;;;;;;2088781;28;20179;-72
2022/02/03 06:31:54;;;;;;;26.97;7.37;;;2.40;99.90;;;;;;2089332;28;20199;-72
2022/02/03 06:32:55;;;;;;;155.77;14.38;;;2.40;99.90;;;;;;2088593;28;20182;-72
2022/02/03 06:33:56;;;;;;;87.57;10.60;;;2.40;99.90;;;;;;2080386;28;20218;-72
2022/02/03 06:34:57;;;;;;;178.27;18.05;;;2.30;99.90;;;;;;2080337;28;20216;-72
2022/02/03 06:35:57;;;;;;;103.20;12.63;;;2.40;99.90;;;;;;2088717;28;20256;-72
2022/02/03 06:36:58;;;;;;;158.63;13.27;;;2.30;99.90;;;;;;2096945;28;20928;-72
2022/02/03 06:37:59;;;;;;;90.63;12.73;;;2.30;99.90;;;;;;2089245;28;20559;-72
2022/02/03 06:39:00;;;;;;;87.67;12.13;;;2.30;99.90;;;;;;2096685;28;20185;-72
2022/02/03 06:40:01;;;;;;;130.25;11.45;;;2.30;99.90;;;;;;2096897;28;20179;-72
2022/02/03 06:41:03;;;;;;;122.05;12.10;;;2.30;99.90;;;;;;2088604;28;20184;-72
2022/02/03 06:42:06;;;;;;;194.52;19.25;;;2.40;99.90;;;;;;2088564;28;20201;-72
2022/02/03 06:43:06;;;;;;;76.57;9.35;;;2.40;99.90;;;;;;2089210;28;20642;-72
2022/02/03 06:44:07;;;;;;;111.60;12.13;;;2.30;99.90;;;;;;2089082;28;20206;-72
2022/02/03 06:45:17;;;;;;;119.03;13.63;;;2.30;99.90;;;;;;2096728;28;20176;-72
2022/02/03 06:46:18;;;;;;;190.68;18.75;;;2.30;99.90;;;;;;2095828;28;20163;-72
2022/02/03 06:48:30;;;;;;;165.95;13.43;;;2.30;99.90;;;;;;2088746;28;20232;-72
2022/02/03 06:50:41;;;;;;;98.85;11.98;;;2.30;99.90;;;;;;2092815;28;20261;-72
2022/02/03 06:51:49;;;;;;;67.60;12.82;;;2.30;99.90;;;;;;2082461;28;20258;-72
2022/02/03 06:53:13;;;;;;;17.75;6.03;;;2.30;99.90;;;;;;2093433;28;20176;-72
2022/02/03 06:54:18;;;;;;;37.92;7.78;;;2.30;99.90;;;;;;2076402;28;20186;-72
2022/02/03 06:55:28;;;;;;;64.07;9.77;;;2.20;99.90;;;;;;2084222;28;20179;-72
2022/02/03 06:57:37;;;;;;;43.57;6.90;;;2.20;99.90;;;;;;2096911;28;20185;-72
2022/02/03 06:58:44;;;;;;;42.97;5.88;;;2.20;99.90;;;;;;2097478;28;20178;-72
2022/02/03 06:59:54;;;;;;;89.00;6.90;;;2.20;99.90;;;;;;2096462;28;20971;-72
2022/02/03 07:01:02;;;;;;;100.03;8.40;;;2.20;99.90;;;;;;2090682;28;20521;-72
2022/02/03 07:02:03;;;;;;;102.07;10.70;;;2.20;99.90;;;;;;2090857;28;20222;-72
2022/02/03 07:03:11;;;;;;;35.55;5.93;;;2.20;99.90;;;;;;2096908;28;20627;-72
2022/02/03 07:04:20;;;;;;;187.13;14.95;;;2.30;99.90;;;;;;2096658;28;20284;-72
2022/02/03 07:05:23;;;;;;;14.88;4.65;;;2.30;99.90;;;;;;2096742;28;20167;-72
2022/02/03 07:06:24;;;;;;;104.55;6.55;;;2.30;99.90;;;;;;2088402;28;20185;-72
2022/02/03 07:07:26;;;;;;;51.43;6.97;;;2.30;99.90;;;;;;2088657;28;20690;-72
2022/02/03 07:08:29;;;;;;;31.65;5.88;;;2.30;99.90;;;;;;2097291;28;20276;-72
2022/02/03 07:09:30;;;;;;;57.17;7.68;;;2.40;99.90;;;;;;2096311;28;20210;-72
2022/02/03 07:10:31;;;;;;;98.00;10.63;;;2.40;99.90;;;;;;2096676;28;20205;-71
2022/02/03 07:11:31;;;;;;;69.23;8.40;;;2.30;99.90;;;;;;2088114;28;20745;-72
2022/02/03 07:12:32;;;;;;;50.17;6.47;;;2.30;99.90;;;;;;2088479;28;20186;-72
2022/02/03 07:13:34;;;;;;;57.80;6.93;;;2.30;99.90;;;;;;2096196;28;20178;-72
2022/02/03 07:14:36;;;;;;;57.38;7.43;;;2.30;99.90;;;;;;2088059;28;20183;-72
2022/02/03 07:15:37;;;;;;;59.95;6.13;;;2.30;99.90;;;;;;2096656;28;20268;-71
2022/02/03 07:16:49;;;;;;;46.00;5.72;;;2.30;99.90;;;;;;2097274;28;20175;-72
2022/02/03 07:17:50;;;;;;;174.48;11.98;;;2.40;99.90;;;;;;2104890;28;20169;-71
2022/02/03 07:18:50;;;;;;;205.80;11.00;;;2.50;99.90;;;;;;2103505;28;20179;-72
2022/02/03 07:19:54;;;;;;;174.13;8.60;;;2.60;99.90;;;;;;2097207;28;20184;-72
2022/02/03 07:20:55;;;;;;;227.90;10.63;;;2.60;99.90;;;;;;2096665;28;20177;-72
2022/02/03 07:21:55;;;;;;;97.53;9.03;;;2.60;99.90;;;;;;2096498;28;20634;-72
2022/02/03 07:22:57;;;;;;;211.00;12.90;;;2.50;99.90;;;;;;2097254;28;20188;-71
2022/02/03 07:23:57;;;;;;;175.32;12.15;;;2.50;99.90;;;;;;2097160;28;20212;-72
2022/02/03 07:24:59;;;;;;;178.43;11.13;;;2.50;99.90;;;;;;2096818;28;20204;-72
2022/02/03 07:25:59;;;;;;;143.85;9.73;;;2.40;99.90;;;;;;2096653;28;20172;-72
2022/02/03 07:27:00;;;;;;;73.93;6.83;;;2.40;99.90;;;;;;2088247;28;20187;-72
2022/02/03 07:28:01;;;;;;;40.87;7.03;;;2.50;99.90;;;;;;2096559;28;20186;-72
2022/02/03 07:29:03;;;;;;;212.80;17.88;;;2.60;99.90;;;;;;2096287;28;20191;-72
2022/02/03 07:30:04;;;;;;;161.20;13.80;;;2.60;99.90;;;;;;2088560;28;20213;-72
2022/02/03 07:31:07;;;;;;;144.40;12.23;;;2.60;99.90;;;;;;2096433;28;20268;-71
2022/02/03 07:32:08;;;;;;;116.18;10.32;;;2.60;99.90;;;;;;2096543;28;20205;-72
2022/02/03 07:33:10;;;;;;;463.00;23.52;;;2.60;99.90;;;;;;2096488;28;20661;-72
2022/02/03 07:34:13;;;;;;;295.92;18.73;;;2.60;99.90;;;;;;2096584;28;20185;-72
2022/02/03 07:35:14;;;;;;;236.88;17.27;;;2.50;99.90;;;;;;2096097;28;20179;-72
2022/02/03 07:36:15;;;;;;;12.37;3.20;;;2.50;99.90;;;;;;2097202;28;20180;-72
2022/02/03 07:37:15;;;;;;;35.53;5.67;;;2.40;99.90;;;;;;2096305;28;20189;-72
2022/02/03 07:38:20;;;;;;;68.27;5.67;;;2.50;99.90;;;;;;2088261;28;20183;-72
2022/02/03 07:39:20;;;;;;;125.95;10.18;;;2.60;99.90;;;;;;2088471;28;20647;-72
2022/02/03 07:40:22;;;;;;;82.57;9.00;;;2.60;99.90;;;;;;2104851;28;20284;-72
2022/02/03 07:41:23;;;;;;;118.10;9.82;;;2.60;99.90;;;;;;2096427;28;20179;-72
2022/02/03 07:42:24;;;;;;;130.47;22.27;;;2.50;99.90;;;;;;2096753;28;20271;-71
2022/02/03 07:43:25;;;;;;;313.27;28.70;;;2.60;99.90;;;;;;2096128;28;20194;-72
2022/02/03 07:44:26;;;;;;;218.00;21.87;;;2.60;99.90;;;;;;2096220;28;20183;-72
2022/02/03 07:45:27;;;;;;;56.72;10.55;;;2.50;99.90;;;;;;2096477;28;20261;-72
2022/02/03 07:46:30;;;;;;;244.73;22.20;;;2.60;99.90;;;;;;2088319;28;20190;-72
2022/02/03 07:47:31;;;;;;;196.68;17.73;;;2.60;99.90;;;;;;2088584;28;20172;-72
2022/02/03 07:48:31;;;;;;;183.50;16.47;;;2.60;99.90;;;;;;2088447;28;20198;-72
2022/02/03 07:49:34;;;;;;;244.77;19.60;;;2.50;99.90;;;;;;2096278;28;20581;-72
2022/02/03 07:50:35;;;;;;;194.40;15.70;;;2.50;99.90;;;;;;2097233;28;20782;-72
2022/02/03 07:51:36;;;;;;;45.63;8.43;;;2.50;99.90;;;;;;2097019;28;20198;-72
2022/02/03 07:52:36;;;;;;;110.23;12.00;;;2.60;99.90;;;;;;2096595;28;20709;-72
2022/02/03 07:53:37;;;;;;;103.80;10.97;;;2.60;99.90;;;;;;2096405;28;20273;-72
2022/02/03 07:54:40;;;;;;;48.10;7.23;;;2.70;99.90;;;;;;2096884;28;20182;-72
2022/02/03 07:55:41;;;;;;;162.57;14.10;;;2.80;99.90;;;;;;2097162;28;20265;-72
2022/02/03 07:56:41;;;;;;;214.80;19.58;;;2.70;99.90;;;;;;2097291;28;20286;-72
2022/02/03 07:57:53;;;;;;;27.63;9.17;;;2.70;99.90;;;;;;2097142;28;20239;-72
2022/02/03 07:58:54;;;;;;;78.93;17.50;;;2.70;99.90;;;;;;2096426;28;20194;-72
2022/02/03 07:59:55;;;;;;;57.45;11.85;;;2.60;99.90;;;;;;2096581;28;20186;-72
2022/02/03 08:00:56;;;;;;;130.23;13.33;;;2.50;99.90;;;;;;2097310;28;20190;-72
2022/02/03 08:01:57;;;;;;;63.55;9.82;;;2.50;99.90;;;;;;2097263;28;20890;-72
2022/02/03 08:02:57;;;;;;;80.27;7.83;;;2.40;99.90;;;;;;2088213;28;20211;-72
2022/02/03 08:04:01;;;;;;;60.60;7.23;;;2.50;99.90;;;;;;2088104;28;20225;-72
2022/02/03 08:05:05;;;;;;;99.97;8.65;;;2.60;99.90;;;;;;2098459;28;20267;-72
2022/02/03 08:06:08;;;;;;;116.50;8.95;;;2.60;99.90;;;;;;2098051;28;20294;-72
2022/02/03 08:07:10;;;;;;;78.78;7.10;;;2.70;99.90;;;;;;2089885;28;20179;-72
2022/02/03 08:09:25;;;;;;;47.60;6.65;;;2.90;99.90;;;;;;2098310;28;20870;-72
2022/02/03 08:11:35;;;;;;;56.03;8.02;;;3.00;99.90;;;;;;2090064;28;20243;-72
2022/02/03 08:12:36;;;;;;;66.13;10.80;;;3.10;99.90;;;;;;2089803;28;20237;-72
2022/02/03 08:13:48;;;;;;;65.68;9.57;;;3.00;99.90;;;;;;2089846;28;20188;-72
2022/02/03 08:14:51;;;;;;;82.95;10.98;;;3.10;99.90;;;;;;2089861;28;20168;-72
2022/02/03 08:15:59;;;;;;;59.72;7.22;;;3.10;99.90;;;;;;2089660;28;20185;-72
2022/02/03 08:17:05;;;;;;;50.65;6.78;;;3.20;99.90;;;;;;2082657;28;20195;-72
2022/02/03 08:18:10;;;;;;;31.42;2.55;;;3.20;99.90;;;;;;2089746;28;20192;-72
2022/02/03 08:19:18;;;;;;;33.38;2.58;;;3.20;99.90;;;;;;2089491;28;20254;-72
2022/02/03 08:20:20;;;;;;;30.13;2.35;;;3.10;99.90;;;;;;2091216;28;20175;-72
2022/02/03 08:21:22;;;;;;;36.00;3.40;;;3.10;99.90;;;;;;2096768;28;20191;-72
2022/02/03 08:22:32;;;;;;;21.05;2.80;;;3.10;99.90;;;;;;2090331;28;20627;-72
2022/02/03 08:24:56;;;;;;;21.47;2.00;;;3.00;99.90;;;;;;2089879;28;20183;-72
2022/02/03 08:26:06;;;;;;;20.40;1.38;;;3.10;99.90;;;;;;2089617;28;20211;-72
2022/02/03 08:27:35;;;;;;;8.88;1.23;;;3.10;99.90;;;;;;2089628;28;20517;-72
2022/02/03 08:28:57;;;;;;;9.07;1.33;;;3.10;99.90;;;;;;2089851;28;20736;-72
2022/02/03 08:31:38;;;;;;;17.33;2.28;;;3.10;99.90;;;;;;2088074;28;20176;-72
2022/02/03 08:32:44;;;;;;;6.25;1.38;;;3.10;99.90;;;;;;2086648;28;20233;-72
2022/02/03 08:33:48;;;;;;;10.13;1.10;;;3.10;99.90;;;;;;2084426;28;20210;-72
2022/02/03 08:35:57;;;;;;;9.73;1.15;;;3.20;99.90;;;;;;2097341;28;20179;-72
2022/02/03 08:37:00;;;;;;;8.43;1.40;;;3.30;99.90;;;;;;2089355;28;20251;-72
2022/02/03 08:39:18;;;;;;;17.60;1.70;;;3.50;99.90;;;;;;2082765;28;20403;-72
2022/02/03 08:41:05;;;;;;;21.35;1.90;;;3.50;99.90;;;;;;2089738;28;20238;-72
2022/02/03 08:41:41;;;;;;;13.38;1.50;;;3.50;99.90;;;;;;2085533;28;20211;-72
2022/02/03 08:42:41;;;;;;;36.53;3.10;;;3.40;99.90;;;;;;2089652;28;20189;-72
2022/02/03 08:43:43;;;;;;;66.83;3.37;;;3.40;99.90;;;;;;2089316;28;20200;-72
2022/02/03 08:44:44;;;;;;;25.42;2.35;;;3.40;99.90;;;;;;2080961;28;20705;-72
2022/02/03 08:45:46;;;;;;;9.82;1.65;;;3.30;99.90;;;;;;2081065;28;20185;-72
2022/02/03 08:46:46;;;;;;;30.63;2.05;;;3.20;99.90;;;;;;2081351;28;20181;-72
2022/02/03 08:47:47;;;;;;;22.77;2.60;;;3.20;99.90;;;;;;2081130;28;20639;-72
2022/02/03 08:48:48;;;;;;;11.70;1.63;;;3.20;99.90;;;;;;2081241;28;20176;-72
2022/02/03 08:49:49;;;;;;;10.27;1.53;;;3.30;99.90;;;;;;2080976;28;20195;-72
2022/02/03 08:50:49;;;;;;;8.50;1.20;;;3.40;99.90;;;;;;2081319;28;20200;-72
2022/02/03 08:51:51;;;;;;;23.90;2.47;;;3.50;99.90;;;;;;2080952;28;20200;-72
2022/02/03 08:53:07;;;;;;;17.95;2.40;;;3.50;99.90;;;;;;2073049;28;20789;-72
2022/02/03 08:54:11;;;;;;;56.53;13.00;;;3.70;99.90;;;;;;2083311;28;20172;-72
2022/02/03 08:56:32;;;;;;;41.93;5.40;;;3.80;99.90;;;;;;2090037;28;20193;-72
2022/02/03 08:57:43;;;;;;;33.05;10.20;;;3.80;99.90;;;;;;2090060;28;20180;-72
2022/02/03 08:59:10;;;;;;;28.77;5.18;;;3.90;99.90;;;;;;2089429;28;20196;-72
2022/02/03 09:00:31;;;;;;;19.58;6.00;;;4.10;99.90;;;;;;2084953;28;20192;-72
2022/02/03 09:31:12;;;;;;;1.70;1.35;;;4.70;99.90;;;;;;2097815;28;20949;-72
2022/02/03 09:37:12;;;;;;;10.52;1.83;;;4.50;99.90;;;;;;2097917;28;20538;-72
2022/02/03 09:40:03;;;;;;;6.10;1.42;;;4.60;99.90;;;;;;2097474;28;20243;-72
2022/02/03 09:53:01;;;;;;;2.83;1.88;;;4.90;99.90;;;;;;2097407;28;20167;-72
2022/02/03 09:54:27;;;;;;;5.07;1.50;;;5.10;99.90;;;;;;2097500;28;20171;-72
2022/02/03 09:57:51;;;;;;;1.33;1.10;;;5.20;99.90;;;;;;2097330;28;20531;-72
2022/02/03 09:59:11;;;;;;;12.43;1.98;;;5.50;99.90;;;;;;2099648;28;20250;-73
2022/02/03 10:02:06;;;;;;;11.18;1.65;;;5.70;99.90;;;;;;2097618;28;20217;-72
2022/02/03 10:03:13;;;;;;;9.20;1.65;;;5.70;99.90;;;;;;2096891;28;20183;-72
2022/02/03 10:04:23;;;;;;;3.47;2.20;;;5.60;99.90;;;;;;2101455;28;20794;-72
2022/02/03 10:05:35;;;;;;;3.90;1.60;;;5.70;99.90;;;;;;2097030;28;20171;-72
2022/02/03 10:06:57;;;;;;;5.65;2.88;;;5.60;99.90;;;;;;2097218;28;20170;-72
2022/02/03 10:07:57;;;;;;;5.18;2.30;;;5.80;99.90;;;;;;2105378;28;20193;-72
2022/02/03 10:08:58;;;;;;;15.53;3.40;;;5.90;99.90;;;;;;2096798;28;20194;-72
2022/02/03 10:10:08;;;;;;;5.47;2.83;;;5.90;99.90;;;;;;2097098;28;20171;-72
2022/02/03 10:11:23;;;;;;;8.90;2.33;;;5.80;99.90;;;;;;2089773;28;20161;-72
2022/02/03 10:12:39;;;;;;;9.13;2.10;;;5.70;99.90;;;;;;2097311;28;20670;-72
2022/02/03 10:13:46;;;;;;;2.70;1.65;;;5.80;99.90;;;;;;2097022;28;20171;-72
2022/02/03 10:14:48;;;;;;;4.22;1.00;;;5.80;99.90;;;;;;2096619;28;20179;-72
2022/02/03 10:16:05;;;;;;;3.65;1.67;;;5.80;99.90;;;;;;2096748;28;20202;-72
2022/02/03 10:17:07;;;;;;;1.75;1.33;;;5.90;99.90;;;;;;2096620;28;20178;-72
2022/02/03 10:18:28;;;;;;;7.30;1.60;;;5.90;99.90;;;;;;2088994;28;20714;-72
2022/02/03 10:19:34;;;;;;;1.27;1.15;;;6.00;99.90;;;;;;2091347;28;20166;-72
2022/02/03 10:20:35;;;;;;;1.45;1.00;;;6.00;99.90;;;;;;2090028;28;20161;-72
2022/02/03 10:21:36;;;;;;;1.10;0.90;;;6.10;99.90;;;;;;2096771;28;20685;-72
2022/02/03 10:22:50;;;;;;;0.90;0.90;;;6.00;99.90;;;;;;2097066;28;20861;-72
2022/02/03 10:23:59;;;;;;;4.32;1.20;;;6.00;99.90;;;;;;2090191;28;20314;-72
2022/02/03 10:25:11;;;;;;;1.83;1.00;;;6.00;99.90;;;;;;2081278;28;20270;-72
2022/02/03 10:26:11;;;;;;;7.13;1.20;;;6.20;99.90;;;;;;2090381;28;20171;-72
2022/02/03 10:27:27;;;;;;;7.37;1.23;;;6.30;99.90;;;;;;2096419;28;20671;-72
2022/02/03 10:28:28;;;;;;;1.77;0.90;;;6.20;99.90;;;;;;2090772;28;20651;-72
2022/02/03 10:29:44;;;;;;;1.03;0.93;;;6.10;99.90;;;;;;2088844;28;20191;-72
2022/02/03 10:30:50;;;;;;;1.13;0.90;;;6.20;99.90;;;;;;2090827;28;20173;-72
2022/02/03 10:31:50;;;;;;;1.33;1.10;;;6.20;99.90;;;;;;2091153;28;20235;-72
2022/02/03 10:32:53;;;;;;;1.73;1.00;;;6.30;99.90;;;;;;2096807;28;20178;-72
2022/02/03 10:34:06;;;;;;;1.38;1.20;;;6.40;99.90;;;;;;2097334;28;20176;-72
2022/02/03 10:35:35;;;;;;;1.00;0.90;;;6.40;99.90;;;;;;2088213;28;20196;-72
2022/02/03 10:37:07;;;;;;;1.48;1.38;;;6.50;99.90;;;;;;2088358;28;20636;-72
2022/02/03 10:38:58;;;;;;;1.63;1.50;;;6.40;99.90;;;;;;2085228;28;20186;-72
2022/02/03 10:45:20;;;;;;;1.80;1.40;;;5.80;99.90;;;;;;2096518;28;20183;-72
2022/02/03 10:49:04;;;;;;;2.67;1.73;;;5.70;99.90;;;;;;2089118;28;20188;-71
2022/02/03 10:52:14;;;;;;;3.97;2.10;;;5.80;99.90;;;;;;2096004;28;20168;-72
2022/02/03 10:54:47;;;;;;;2.78;2.17;;;5.60;99.90;;;;;;2096407;28;20534;-71
2022/02/03 10:57:18;;;;;;;3.00;2.40;;;5.70;99.90;;;;;;2096944;28;20222;-72
2022/02/03 10:58:49;;;;;;;2.90;2.20;;;5.80;99.90;;;;;;2097471;28;20171;-72
2022/02/03 11:05:20;;;;;;;2.40;2.00;;;6.00;99.90;;;;;;2096549;28;20254;-71
2022/02/03 11:07:35;;;;;;;2.88;2.42;;;5.60;99.90;;;;;;2093039;28;20207;-71
2022/02/03 11:08:44;;;;;;;4.22;3.08;;;5.60;99.90;;;;;;2096656;28;20179;-70
2022/02/03 11:09:55;;;;;;;2.92;1.98;;;5.60;99.90;;;;;;2097030;28;20191;-70
2022/02/03 11:11:00;;;;;;;4.25;2.67;;;5.80;99.90;;;;;;2096621;28;20201;-73
2022/02/03 11:12:01;;;;;;;3.97;2.72;;;5.70;99.90;;;;;;2090350;28;20204;-71
2022/02/03 11:13:02;;;;;;;3.40;2.35;;;5.70;99.90;;;;;;2096805;28;20178;-71
2022/02/03 11:14:04;;;;;;;5.20;2.42;;;5.70;99.90;;;;;;2088218;28;20181;-71
2022/02/03 11:15:09;;;;;;;2.08;1.83;;;5.80;99.90;;;;;;2080247;28;20184;-70
2022/02/03 11:16:11;;;;;;;3.85;2.55;;;5.70;99.90;;;;;;2088480;28;20670;-70
2022/02/03 11:17:12;;;;;;;3.78;2.53;;;5.70;99.90;;;;;;2088400;28;20233;-73
2022/02/03 11:18:14;;;;;;;2.78;2.10;;;5.60;99.90;;;;;;2088214;28;20657;-72
2022/02/03 11:19:21;;;;;;;3.17;2.17;;;5.50;99.90;;;;;;2080068;28;20188;-72
2022/02/03 11:20:24;;;;;;;3.03;2.60;;;5.60;99.90;;;;;;2081671;28;20177;-73
2022/02/03 11:21:25;;;;;;;2.63;2.10;;;5.80;99.90;;;;;;2088718;28;20192;-72
2022/02/03 11:22:42;;;;;;;3.40;2.07;;;5.80;99.90;;;;;;2088036;28;20561;-72